Time;durP1;ratioP1;P1;durP2;ratioP2;P2;SDS_P1;SDS_P2;PMS_P1;PMS_P2;Temp;Humidity;BMP_temperature;BMP_pressure;BME280_temperature;BME280_humidity;BME280_pressure;Samples;Min_cycle;Max_cycle;Signal;HPM_P1;HPM_P2
2021/12/20 00:00:01;;;;;;;2.40;1.80;;;1.70;99.90;;;;;;4991061;28;20227;-55
2021/12/20 00:02:28;;;;;;;2.43;1.80;;;1.80;99.90;;;;;;4983759;28;20298;-56
2021/12/20 00:04:54;;;;;;;3.33;1.80;;;1.80;99.90;;;;;;4979178;28;20210;-54
2021/12/20 00:07:21;;;;;;;2.83;2.00;;;1.80;99.90;;;;;;4982213;28;20204;-56
2021/12/20 00:09:48;;;;;;;2.43;2.10;;;1.80;99.90;;;;;;4980085;28;20196;-57
2021/12/20 00:12:15;;;;;;;4.13;1.87;;;1.80;99.90;;;;;;4981915;28;20656;-55
2021/12/20 00:14:43;;;;;;;3.43;1.97;;;1.70;99.90;;;;;;4982222;28;20301;-54
2021/12/20 00:17:10;;;;;;;3.10;1.87;;;1.70;99.90;;;;;;4980691;28;20295;-58
2021/12/20 00:19:37;;;;;;;4.23;2.20;;;1.70;99.90;;;;;;4981778;28;20200;-55
2021/12/20 00:22:04;;;;;;;2.87;1.90;;;1.70;99.90;;;;;;4986927;28;20203;-55
2021/12/20 00:24:31;;;;;;;2.97;2.13;;;1.70;99.90;;;;;;4980730;28;20227;-56
2021/12/20 00:26:58;;;;;;;3.47;2.27;;;1.70;99.90;;;;;;4977209;28;20235;-57
2021/12/20 00:29:24;;;;;;;3.43;2.13;;;1.70;99.90;;;;;;4982465;28;20215;-55
2021/12/20 00:31:52;;;;;;;2.20;2.00;;;1.80;99.90;;;;;;4988650;28;20214;-57
2021/12/20 00:34:19;;;;;;;3.97;2.30;;;1.80;99.90;;;;;;4980571;28;20200;-56
2021/12/20 00:36:56;;;;;;;2.40;2.20;;;1.80;99.90;;;;;;4984526;28;20200;-58
2021/12/20 00:42:07;;;;;;;2.60;2.40;;;1.80;99.90;;;;;;4991397;28;20277;-59
2021/12/20 00:44:34;;;;;;;3.17;2.40;;;1.70;99.90;;;;;;4994131;28;20211;-55
2021/12/20 00:47:02;;;;;;;3.90;2.30;;;1.60;99.90;;;;;;4994485;28;20215;-54
2021/12/20 00:49:29;;;;;;;4.03;2.30;;;1.70;99.90;;;;;;4994659;28;20211;-57
2021/12/20 00:51:59;;;;;;;3.23;2.00;;;1.70;99.90;;;;;;4994692;28;20211;-57
2021/12/20 00:54:26;;;;;;;3.83;2.20;;;1.70;99.90;;;;;;4994875;28;20214;-58
2021/12/20 00:56:52;;;;;;;2.37;2.00;;;1.70;99.90;;;;;;4994094;28;20573;-56
2021/12/20 00:59:19;;;;;;;3.47;2.30;;;1.70;99.90;;;;;;4994601;28;20685;-55
2021/12/20 01:01:46;;;;;;;3.57;2.00;;;1.70;99.90;;;;;;4994275;28;20215;-57
2021/12/20 01:04:14;;;;;;;2.43;2.00;;;1.80;99.90;;;;;;4994363;28;20210;-56
2021/12/20 01:06:41;;;;;;;2.53;1.90;;;1.80;99.90;;;;;;4994143;28;20239;-56
2021/12/20 01:09:08;;;;;;;3.50;2.37;;;1.70;99.90;;;;;;4994177;28;20199;-56
2021/12/20 01:11:39;;;;;;;2.93;2.07;;;1.70;99.90;;;;;;4994398;28;20214;-58
2021/12/20 01:14:06;;;;;;;2.87;2.17;;;1.70;99.90;;;;;;4994276;28;20768;-56
2021/12/20 01:16:33;;;;;;;2.07;1.87;;;1.70;99.90;;;;;;4994088;28;20200;-58
2021/12/20 01:19:00;;;;;;;2.57;2.10;;;1.80;99.90;;;;;;4994226;28;20220;-56
2021/12/20 01:21:29;;;;;;;3.23;2.20;;;1.80;99.90;;;;;;4994416;28;20208;-57
2021/12/20 01:23:56;;;;;;;3.70;2.07;;;1.80;99.90;;;;;;4993843;28;20259;-57
2021/12/20 01:26:23;;;;;;;2.80;2.00;;;1.80;99.90;;;;;;4994006;28;20223;-54
2021/12/20 01:28:50;;;;;;;4.03;2.23;;;1.80;99.90;;;;;;4993601;28;20211;-52
2021/12/20 01:31:17;;;;;;;2.97;2.20;;;1.80;99.90;;;;;;4993754;28;20683;-54
2021/12/20 01:33:44;;;;;;;3.27;2.33;;;1.80;99.90;;;;;;4993913;28;20210;-56
2021/12/20 01:36:10;;;;;;;2.67;2.10;;;1.80;99.90;;;;;;4993673;28;20614;-56
2021/12/20 01:38:38;;;;;;;2.90;1.90;;;1.70;99.90;;;;;;4993699;28;20587;-57
2021/12/20 01:41:06;;;;;;;2.90;2.13;;;1.70;99.90;;;;;;4993986;28;20203;-55
2021/12/20 01:43:33;;;;;;;3.13;2.07;;;1.70;99.90;;;;;;4994034;28;20267;-55
2021/12/20 01:46:00;;;;;;;2.20;2.00;;;1.80;99.90;;;;;;4993558;28;20210;-56
2021/12/20 01:48:29;;;;;;;4.43;2.10;;;1.80;99.90;;;;;;4993930;28;20206;-58
2021/12/20 01:53:44;;;;;;;4.47;2.63;;;1.80;99.90;;;;;;4993639;28;20263;-55
2021/12/20 01:56:11;;;;;;;2.83;2.20;;;1.80;99.90;;;;;;4993720;28;20574;-59
2021/12/20 01:58:38;;;;;;;3.57;1.93;;;1.80;99.90;;;;;;4993125;28;20552;-54
2021/12/20 02:01:19;;;;;;;3.13;2.13;;;1.80;99.90;;;;;;4993439;28;20215;-53
2021/12/20 02:03:51;;;;;;;2.20;1.90;;;1.80;99.90;;;;;;4993037;28;20210;-58
2021/12/20 02:06:23;;;;;;;3.63;2.07;;;1.80;99.90;;;;;;4993293;28;20197;-54
2021/12/20 02:08:52;;;;;;;2.43;1.83;;;1.80;99.90;;;;;;4993209;28;20191;-57
2021/12/20 02:11:20;;;;;;;3.33;2.20;;;1.80;99.90;;;;;;4993158;28;20204;-57
2021/12/20 02:13:48;;;;;;;3.27;2.10;;;1.80;99.90;;;;;;4973741;28;20668;-55
2021/12/20 02:16:15;;;;;;;3.60;2.10;;;1.70;99.90;;;;;;4973709;28;20218;-54
2021/12/20 02:18:42;;;;;;;3.57;2.00;;;1.70;99.90;;;;;;4973529;28;20604;-54
2021/12/20 02:21:10;;;;;;;3.37;1.83;;;1.70;99.90;;;;;;4973895;28;20208;-58
2021/12/20 02:23:37;;;;;;;3.20;2.17;;;1.70;99.90;;;;;;4975423;28;20218;-54
2021/12/20 02:26:05;;;;;;;5.20;2.17;;;1.70;99.90;;;;;;4973712;28;20250;-55
2021/12/20 02:28:37;;;;;;;2.97;2.03;;;1.70;99.90;;;;;;4973606;28;20673;-52
2021/12/20 02:39:36;;;;;;;4.10;2.53;;;1.60;99.90;;;;;;4992181;28;20214;-55
2021/12/20 02:42:03;;;;;;;3.60;2.00;;;1.60;99.90;;;;;;4983133;28;20251;-55
2021/12/20 02:44:31;;;;;;;3.70;2.27;;;1.60;99.90;;;;;;4983100;28;20223;-55
2021/12/20 02:47:14;;;;;;;5.00;2.33;;;1.60;99.90;;;;;;4983059;28;20204;-55
2021/12/20 02:49:42;;;;;;;7.13;2.20;;;1.60;99.90;;;;;;4985314;28;20324;-55
2021/12/20 02:52:10;;;;;;;3.47;1.87;;;1.60;99.90;;;;;;4991177;28;20207;-58
2021/12/20 02:54:37;;;;;;;2.90;2.00;;;1.60;99.90;;;;;;4991996;28;20231;-54
2021/12/20 02:57:05;;;;;;;4.87;2.00;;;1.60;99.90;;;;;;4992569;28;20203;-57
2021/12/20 02:59:32;;;;;;;2.93;2.17;;;1.70;99.90;;;;;;4991600;28;20586;-53
2021/12/20 03:02:02;;;;;;;4.97;2.20;;;1.60;99.90;;;;;;4992474;28;20207;-55
2021/12/20 03:04:29;;;;;;;2.70;2.10;;;1.60;99.90;;;;;;4987099;28;20208;-52
2021/12/20 03:07:00;;;;;;;3.50;2.13;;;1.70;99.90;;;;;;4982276;28;20235;-56
2021/12/20 03:09:33;;;;;;;2.67;1.90;;;1.70;99.90;;;;;;4982480;28;20551;-56
2021/12/20 03:12:01;;;;;;;3.37;1.87;;;1.70;99.90;;;;;;4980395;28;20203;-54
2021/12/20 03:14:32;;;;;;;3.00;1.80;;;1.60;99.90;;;;;;4982984;28;20287;-57
2021/12/20 03:17:00;;;;;;;3.17;1.80;;;1.60;99.90;;;;;;4981096;28;20199;-54
2021/12/20 03:19:27;;;;;;;2.27;1.90;;;1.60;99.90;;;;;;4974023;28;20227;-53
2021/12/20 03:21:55;;;;;;;2.77;1.97;;;1.60;99.90;;;;;;4979699;28;20211;-51
2021/12/20 03:24:21;;;;;;;2.80;2.10;;;1.60;99.90;;;;;;4986874;28;20585;-56
2021/12/20 03:26:50;;;;;;;2.47;1.90;;;1.60;99.90;;;;;;4985548;28;20230;-55
2021/12/20 03:29:18;;;;;;;2.80;2.10;;;1.60;99.90;;;;;;4991890;28;20203;-56
2021/12/20 03:31:44;;;;;;;4.80;2.27;;;1.60;99.90;;;;;;4992290;28;20210;-58
2021/12/20 03:34:12;;;;;;;3.83;2.27;;;1.60;99.90;;;;;;4991654;28;20210;-56
2021/12/20 03:36:39;;;;;;;3.00;2.60;;;1.70;99.90;;;;;;4989669;28;20326;-55
2021/12/20 03:39:08;;;;;;;5.13;2.70;;;1.70;99.90;;;;;;4991558;28;20238;-53
2021/12/20 03:41:35;;;;;;;6.53;3.53;;;1.70;99.90;;;;;;4991907;28;20242;-54
2021/12/20 03:44:03;;;;;;;3.97;2.30;;;1.70;99.90;;;;;;4991875;28;20230;-56
2021/12/20 03:46:30;;;;;;;4.03;2.50;;;1.70;99.90;;;;;;4991158;28;20203;-52
2021/12/20 03:48:57;;;;;;;4.50;2.43;;;1.70;99.90;;;;;;4991782;28;20211;-53
2021/12/20 03:51:24;;;;;;;3.80;2.60;;;1.70;99.90;;;;;;4991431;28;20215;-56
2021/12/20 03:53:51;;;;;;;6.50;3.23;;;1.70;99.90;;;;;;4991207;28;20573;-55
2021/12/20 03:56:18;;;;;;;8.97;4.60;;;1.70;99.90;;;;;;4991691;28;20656;-56
2021/12/20 03:58:45;;;;;;;6.70;3.37;;;1.60;99.90;;;;;;4990096;28;20226;-57
2021/12/20 04:01:14;;;;;;;4.07;2.30;;;1.60;99.90;;;;;;4991837;28;20235;-56
2021/12/20 04:03:43;;;;;;;4.67;2.37;;;1.60;99.90;;;;;;4991936;28;20227;-58
2021/12/20 04:06:11;;;;;;;2.87;2.37;;;1.60;99.90;;;;;;4991533;28;20207;-52
2021/12/20 04:08:38;;;;;;;3.03;2.17;;;1.60;99.90;;;;;;4990291;28;20211;-55
2021/12/20 04:11:05;;;;;;;3.57;2.43;;;1.50;99.90;;;;;;4984903;28;20671;-55
2021/12/20 04:13:33;;;;;;;3.97;2.60;;;1.50;99.90;;;;;;4975944;28;20200;-54
2021/12/20 04:16:01;;;;;;;3.00;2.10;;;1.50;99.90;;;;;;4991052;28;20203;-57
2021/12/20 04:18:30;;;;;;;3.57;2.47;;;1.40;99.90;;;;;;4994807;28;20203;-54
2021/12/20 04:20:56;;;;;;;2.73;2.20;;;1.50;99.90;;;;;;4993736;28;20529;-54
2021/12/20 04:23:23;;;;;;;4.47;2.27;;;1.50;99.90;;;;;;4985243;28;20208;-54
2021/12/20 04:25:50;;;;;;;4.80;2.40;;;1.50;99.90;;;;;;4991575;28;20206;-52
2021/12/20 04:28:17;;;;;;;3.63;2.30;;;1.50;99.90;;;;;;4987929;28;20287;-54
2021/12/20 04:30:43;;;;;;;4.03;2.10;;;1.50;99.90;;;;;;4989985;28;20207;-59
2021/12/20 04:33:10;;;;;;;8.97;2.40;;;1.50;99.90;;;;;;4980419;28;20207;-55
2021/12/20 04:35:38;;;;;;;2.83;2.20;;;1.50;99.90;;;;;;4987577;28;20322;-56
2021/12/20 04:38:08;;;;;;;2.90;2.10;;;1.50;99.90;;;;;;4994248;28;20216;-56
2021/12/20 04:40:35;;;;;;;3.50;2.20;;;1.50;99.90;;;;;;4994225;28;20707;-55
2021/12/20 04:43:02;;;;;;;2.33;2.13;;;1.40;99.90;;;;;;4975587;28;20315;-57
2021/12/20 04:45:29;;;;;;;3.97;2.30;;;1.50;99.90;;;;;;4974856;28;20211;-55
2021/12/20 04:47:57;;;;;;;4.47;2.27;;;1.50;99.90;;;;;;4983133;28;20648;-56
2021/12/20 04:50:25;;;;;;;3.43;2.20;;;1.50;99.90;;;;;;4994495;28;20203;-53
2021/12/20 04:52:55;;;;;;;3.53;2.17;;;1.50;99.90;;;;;;4988914;28;20196;-55
2021/12/20 04:55:23;;;;;;;5.60;2.50;;;1.50;99.90;;;;;;4993989;28;20258;-53
2021/12/20 04:57:50;;;;;;;3.63;2.53;;;1.50;99.90;;;;;;4994740;28;20677;-55
2021/12/20 05:00:20;;;;;;;3.87;2.50;;;1.50;99.90;;;;;;4994387;28;20220;-58
2021/12/20 05:02:48;;;;;;;2.70;2.40;;;1.50;99.90;;;;;;4994938;28;20208;-53
2021/12/20 05:05:15;;;;;;;5.23;2.47;;;1.50;99.90;;;;;;4994221;28;20652;-55
2021/12/20 05:07:44;;;;;;;3.47;2.50;;;1.40;99.90;;;;;;4994649;28;20214;-53
2021/12/20 05:10:24;;;;;;;3.27;2.20;;;1.40;99.90;;;;;;4994106;28;20250;-57
2021/12/20 05:12:51;;;;;;;3.50;2.10;;;1.40;99.90;;;;;;4994430;28;20227;-51
2021/12/20 05:15:18;;;;;;;3.97;2.07;;;1.30;99.90;;;;;;4994448;28;20204;-55
2021/12/20 05:17:45;;;;;;;3.27;2.00;;;1.40;99.90;;;;;;4994560;28;20207;-55
2021/12/20 05:20:12;;;;;;;3.07;2.30;;;1.30;99.90;;;;;;4994312;28;20706;-58
2021/12/20 05:22:39;;;;;;;2.70;2.50;;;1.40;99.90;;;;;;4993748;28;20659;-57
2021/12/20 05:25:06;;;;;;;2.87;2.33;;;1.30;99.90;;;;;;4994465;28;20211;-56
2021/12/20 05:27:35;;;;;;;4.60;2.30;;;1.40;99.90;;;;;;4994513;28;20214;-58
2021/12/20 05:30:03;;;;;;;2.77;2.37;;;1.40;99.90;;;;;;4994227;28;20203;-55
2021/12/20 05:32:30;;;;;;;3.43;2.30;;;1.30;99.90;;;;;;4994269;28;20214;-57
2021/12/20 05:34:57;;;;;;;3.47;2.67;;;1.30;99.90;;;;;;4993529;28;20235;-57
2021/12/20 05:37:24;;;;;;;3.27;2.50;;;1.30;99.90;;;;;;4993978;28;20541;-56
2021/12/20 05:39:51;;;;;;;3.30;2.40;;;1.40;99.90;;;;;;4993906;28;20223;-58
2021/12/20 05:42:17;;;;;;;3.50;2.20;;;1.40;99.90;;;;;;4994020;28;20211;-58
2021/12/20 05:44:45;;;;;;;4.97;2.67;;;1.40;99.90;;;;;;4994114;28;20641;-56
2021/12/20 05:47:12;;;;;;;4.47;2.53;;;1.40;99.90;;;;;;4993953;28;20563;-57
2021/12/20 05:49:39;;;;;;;4.63;2.63;;;1.30;99.90;;;;;;4993760;28;20196;-58
2021/12/20 05:52:06;;;;;;;4.73;2.60;;;1.30;99.90;;;;;;4993897;28;20214;-58
2021/12/20 05:54:33;;;;;;;3.90;2.80;;;1.30;99.90;;;;;;4993916;28;20218;-58
2021/12/20 05:57:00;;;;;;;3.83;2.40;;;1.40;99.90;;;;;;4993807;28;20626;-57
2021/12/20 05:59:27;;;;;;;3.03;2.40;;;1.40;99.90;;;;;;4993961;28;20233;-55
2021/12/20 06:01:55;;;;;;;3.60;2.50;;;1.40;99.90;;;;;;4993392;28;20211;-58
2021/12/20 06:04:22;;;;;;;3.83;2.30;;;1.50;99.90;;;;;;4993768;28;20220;-56
2021/12/20 06:06:48;;;;;;;3.50;2.47;;;1.50;99.90;;;;;;4993491;28;20664;-60
2021/12/20 06:09:15;;;;;;;5.00;2.67;;;1.50;99.90;;;;;;4993272;28;20303;-58
2021/12/20 06:11:42;;;;;;;3.67;2.90;;;1.50;99.90;;;;;;4993853;28;20203;-57
2021/12/20 06:14:09;;;;;;;4.47;2.77;;;1.50;99.90;;;;;;4993248;28;20238;-59
2021/12/20 06:16:36;;;;;;;4.40;2.70;;;1.60;99.90;;;;;;4993083;28;20208;-59
2021/12/20 06:19:04;;;;;;;5.33;3.00;;;1.60;99.90;;;;;;4993374;28;20239;-56
2021/12/20 06:21:31;;;;;;;5.93;3.03;;;1.60;99.90;;;;;;4993539;28;20578;-55
2021/12/20 06:23:58;;;;;;;4.40;2.80;;;1.60;99.90;;;;;;4993278;28;20672;-58
2021/12/20 06:26:25;;;;;;;4.43;3.10;;;1.50;99.90;;;;;;4993493;28;20231;-56
2021/12/20 06:28:53;;;;;;;6.07;3.10;;;1.50;99.90;;;;;;4992459;28;20203;-57
2021/12/20 06:31:20;;;;;;;6.57;4.20;;;1.60;99.90;;;;;;4993083;28;20218;-56
2021/12/20 06:33:46;;;;;;;5.93;3.40;;;1.60;99.90;;;;;;4993386;28;20239;-57
2021/12/20 06:36:15;;;;;;;5.03;3.03;;;1.60;99.90;;;;;;4974059;28;20236;-54
2021/12/20 06:38:46;;;;;;;5.30;3.40;;;1.60;99.90;;;;;;4973792;28;20208;-54
2021/12/20 06:41:13;;;;;;;7.50;4.07;;;1.60;99.90;;;;;;4975042;28;20263;-55
2021/12/20 06:43:40;;;;;;;6.07;3.73;;;1.60;99.90;;;;;;4973799;28;20208;-55
2021/12/20 06:46:07;;;;;;;7.47;4.30;;;1.60;99.90;;;;;;4973681;28;20212;-57
2021/12/20 06:48:34;;;;;;;9.10;5.30;;;1.60;99.90;;;;;;4973810;28;20216;-55
2021/12/20 06:51:00;;;;;;;12.80;5.97;;;1.60;99.90;;;;;;4973529;28;20200;-57
2021/12/20 06:53:28;;;;;;;11.20;6.70;;;1.50;99.90;;;;;;4973605;28;20212;-54
2021/12/20 06:55:55;;;;;;;15.60;8.43;;;1.60;99.90;;;;;;4973210;28;20212;-57
2021/12/20 06:58:23;;;;;;;19.57;9.33;;;1.60;99.90;;;;;;4973493;28;20564;-54
2021/12/20 07:00:50;;;;;;;25.33;11.33;;;1.60;99.90;;;;;;4973221;28;20228;-55
2021/12/20 07:03:19;;;;;;;27.70;12.07;;;1.70;99.90;;;;;;4992312;28;20232;-57
2021/12/20 07:05:46;;;;;;;24.50;11.20;;;1.70;99.90;;;;;;4992199;28;20219;-56
2021/12/20 07:08:13;;;;;;;20.27;9.67;;;1.70;99.90;;;;;;4992365;28;20203;-56
2021/12/20 07:10:41;;;;;;;13.67;7.43;;;1.70;99.90;;;;;;4992267;28;20204;-57
2021/12/20 07:13:09;;;;;;;9.17;5.37;;;1.70;99.90;;;;;;4992503;28;20231;-54
2021/12/20 07:15:36;;;;;;;7.73;4.47;;;1.70;99.90;;;;;;4992142;28;20314;-56
2021/12/20 07:18:03;;;;;;;7.07;3.90;;;1.80;99.90;;;;;;4992418;28;20642;-56
2021/12/20 07:20:30;;;;;;;6.13;4.03;;;1.70;99.90;;;;;;4992365;28;20234;-51
2021/12/20 07:22:57;;;;;;;6.20;3.83;;;1.70;99.90;;;;;;4991931;28;20206;-56
2021/12/20 07:25:24;;;;;;;7.17;3.57;;;1.70;99.90;;;;;;4992346;28;20594;-55
2021/12/20 07:27:53;;;;;;;7.23;4.80;;;1.70;99.90;;;;;;4992157;28;20207;-57
2021/12/20 07:30:21;;;;;;;10.13;4.93;;;1.80;99.90;;;;;;4992352;28;20203;-54
2021/12/20 07:32:48;;;;;;;7.73;4.70;;;1.80;99.90;;;;;;4991863;28;20215;-56
2021/12/20 07:35:15;;;;;;;6.37;4.20;;;1.80;99.90;;;;;;4991993;28;20651;-56
2021/12/20 07:37:43;;;;;;;6.73;3.67;;;1.80;99.90;;;;;;4991842;28;20214;-57
2021/12/20 07:40:11;;;;;;;5.43;3.60;;;1.80;99.90;;;;;;4991995;28;20227;-54
2021/12/20 07:42:38;;;;;;;4.93;3.13;;;1.80;99.90;;;;;;4992154;28;20657;-55
2021/12/20 07:45:08;;;;;;;3.27;2.60;;;1.80;99.90;;;;;;4993608;28;20203;-55
2021/12/20 07:47:35;;;;;;;5.43;3.33;;;1.80;99.90;;;;;;4982482;28;20652;-58
2021/12/20 07:50:01;;;;;;;3.23;2.40;;;1.80;99.90;;;;;;4996143;28;20214;-53
2021/12/20 07:52:28;;;;;;;3.20;2.53;;;1.80;99.90;;;;;;4996178;28;20218;-57
2021/12/20 07:54:55;;;;;;;5.33;2.70;;;1.80;99.90;;;;;;4995995;28;20203;-57
2021/12/20 07:57:22;;;;;;;3.60;2.73;;;1.90;99.90;;;;;;4995818;28;20211;-58
2021/12/20 07:59:49;;;;;;;3.53;2.63;;;1.90;99.90;;;;;;4995632;28;20230;-57
2021/12/20 08:02:17;;;;;;;3.93;2.70;;;1.90;99.90;;;;;;4993614;28;20207;-57
2021/12/20 08:04:49;;;;;;;3.97;3.20;;;1.90;99.90;;;;;;4995400;28;20211;-54
2021/12/20 08:07:16;;;;;;;4.27;3.23;;;1.90;99.90;;;;;;4995416;28;20200;-57
2021/12/20 08:09:42;;;;;;;4.00;2.80;;;1.90;99.90;;;;;;4995562;28;20298;-55
2021/12/20 08:12:10;;;;;;;4.17;2.60;;;1.90;99.90;;;;;;4978975;28;20227;-55
2021/12/20 08:14:37;;;;;;;6.40;3.80;;;1.90;99.90;;;;;;4976167;28;20212;-56
2021/12/20 08:17:04;;;;;;;4.77;3.20;;;2.00;99.90;;;;;;4992064;28;20214;-58
2021/12/20 08:19:32;;;;;;;6.93;3.83;;;2.00;99.90;;;;;;4995479;28;20204;-57
2021/12/20 08:21:59;;;;;;;6.17;3.50;;;2.00;99.90;;;;;;4980195;28;20227;-54
2021/12/20 08:24:26;;;;;;;7.63;4.30;;;2.00;99.90;;;;;;4976335;28;20208;-58
2021/12/20 08:26:52;;;;;;;5.80;3.60;;;2.10;99.90;;;;;;4976155;28;20575;-57
2021/12/20 08:29:19;;;;;;;4.53;3.60;;;2.10;99.90;;;;;;4976314;28;20545;-57
2021/12/20 08:31:46;;;;;;;6.23;3.77;;;2.00;99.90;;;;;;4980873;28;20200;-53
2021/12/20 08:34:13;;;;;;;5.87;3.37;;;2.10;99.90;;;;;;4975587;28;20208;-56
2021/12/20 08:36:41;;;;;;;7.10;4.33;;;2.00;99.90;;;;;;4994436;28;20199;-58
2021/12/20 08:39:09;;;;;;;6.87;4.00;;;2.00;99.90;;;;;;4995516;28;20562;-56
2021/12/20 08:41:36;;;;;;;8.73;4.53;;;2.00;99.90;;;;;;4982628;28;20226;-54
2021/12/20 08:44:02;;;;;;;6.97;3.73;;;2.00;99.90;;;;;;4987227;28;20203;-56
2021/12/20 08:46:29;;;;;;;5.50;3.23;;;2.00;99.90;;;;;;4989548;28;20613;-57
2021/12/20 08:48:56;;;;;;;6.80;3.70;;;2.00;99.90;;;;;;4985062;28;20221;-58
2021/12/20 08:51:25;;;;;;;5.33;3.40;;;2.00;99.90;;;;;;4985775;28;20574;-54
2021/12/20 08:53:53;;;;;;;6.70;3.90;;;1.90;99.90;;;;;;4986505;28;20195;-58
2021/12/20 08:56:20;;;;;;;5.07;3.23;;;1.90;99.90;;;;;;4987705;28;20767;-55
2021/12/20 08:58:47;;;;;;;6.77;4.33;;;1.90;99.90;;;;;;4994783;28;20215;-54
2021/12/20 09:01:14;;;;;;;7.00;3.53;;;1.90;99.90;;;;;;4994086;28;20219;-57
2021/12/20 09:03:41;;;;;;;7.77;4.37;;;1.90;99.90;;;;;;4994798;28;20207;-58
2021/12/20 09:06:08;;;;;;;5.17;3.50;;;1.90;99.90;;;;;;4994653;28;20215;-54
2021/12/20 09:08:35;;;;;;;5.13;3.43;;;1.90;99.90;;;;;;4993479;28;20208;-57
2021/12/20 09:11:03;;;;;;;7.40;4.30;;;1.90;99.90;;;;;;4993950;28;20215;-56
2021/12/20 09:13:30;;;;;;;8.77;4.53;;;1.90;99.90;;;;;;4993879;28;20550;-56
2021/12/20 09:15:59;;;;;;;6.27;3.70;;;2.00;99.90;;;;;;4993139;28;20199;-57
2021/12/20 09:18:27;;;;;;;7.27;3.67;;;1.90;99.90;;;;;;4977762;28;20669;-58
2021/12/20 09:20:54;;;;;;;4.50;3.13;;;2.00;99.90;;;;;;4982460;28;20216;-56
2021/12/20 09:23:21;;;;;;;6.30;3.30;;;2.00;99.90;;;;;;4990295;28;20207;-58
2021/12/20 09:25:48;;;;;;;5.23;3.30;;;2.00;99.90;;;;;;4991759;28;20211;-56
2021/12/20 09:28:16;;;;;;;5.50;3.40;;;2.00;99.90;;;;;;4974880;28;20227;-55
2021/12/20 09:30:45;;;;;;;6.27;3.60;;;2.00;99.90;;;;;;4974491;28;20214;-57
2021/12/20 09:33:13;;;;;;;6.37;3.97;;;2.00;99.90;;;;;;4974721;28;20303;-58
2021/12/20 09:35:41;;;;;;;8.03;4.17;;;2.00;99.90;;;;;;4992389;28;20246;-56
2021/12/20 09:38:10;;;;;;;4.90;3.30;;;2.10;99.90;;;;;;4990402;28;20653;-56
2021/12/20 09:40:40;;;;;;;4.20;2.70;;;2.10;99.90;;;;;;4974837;28;20658;-55
2021/12/20 09:43:11;;;;;;;3.53;2.67;;;2.10;99.90;;;;;;4978059;28;20563;-58
2021/12/20 09:45:43;;;;;;;3.77;2.43;;;2.10;99.90;;;;;;4981655;28;20510;-57
2021/12/20 09:48:11;;;;;;;5.70;3.47;;;2.10;99.90;;;;;;4974685;28;20200;-58
2021/12/20 09:50:37;;;;;;;4.10;2.80;;;2.10;99.90;;;;;;4978259;28;20199;-55
2021/12/20 09:53:07;;;;;;;5.80;3.10;;;2.10;99.90;;;;;;4993454;28;20210;-59
2021/12/20 09:55:35;;;;;;;6.03;3.40;;;2.20;99.90;;;;;;4993573;28;20203;-57
2021/12/20 09:58:04;;;;;;;3.83;2.73;;;2.20;99.90;;;;;;4991527;28;20195;-56
2021/12/20 10:00:33;;;;;;;7.17;3.37;;;2.20;99.90;;;;;;4992917;28;20234;-58
2021/12/20 10:03:02;;;;;;;5.93;3.00;;;2.40;99.90;;;;;;4993433;28;20708;-57
2021/12/20 10:05:29;;;;;;;5.73;3.50;;;2.40;99.90;;;;;;4988907;28;20212;-60
2021/12/20 10:07:58;;;;;;;4.90;3.20;;;2.40;99.90;;;;;;4977840;28;20228;-58
2021/12/20 10:10:37;;;;;;;6.10;3.17;;;2.40;99.90;;;;;;4991668;28;20200;-59
2021/12/20 10:13:04;;;;;;;5.27;3.23;;;2.40;99.90;;;;;;4984859;28;20200;-57
2021/12/20 10:15:35;;;;;;;4.33;2.90;;;2.40;99.90;;;;;;4973517;28;20204;-55
2021/12/20 10:18:05;;;;;;;4.73;3.20;;;2.40;99.90;;;;;;4973571;28;20295;-57
2021/12/20 10:20:35;;;;;;;5.90;3.67;;;2.40;99.90;;;;;;4974031;28;20756;-54
2021/12/20 10:23:12;;;;;;;2.43;2.00;;;2.40;99.90;;;;;;4979465;28;20285;-52
2021/12/20 10:25:40;;;;;;;2.93;2.30;;;2.40;99.90;;;;;;4981977;28;20563;-58
2021/12/20 10:28:09;;;;;;;3.03;2.30;;;2.30;99.90;;;;;;4975383;28;20200;-56
2021/12/20 10:30:39;;;;;;;4.87;2.63;;;2.20;99.90;;;;;;4982088;28;20203;-56
2021/12/20 10:33:10;;;;;;;4.43;2.47;;;2.20;99.90;;;;;;4988148;28;20196;-56
2021/12/20 10:35:40;;;;;;;3.27;2.20;;;2.20;99.90;;;;;;4980390;28;20246;-58
2021/12/20 10:38:21;;;;;;;2.67;2.20;;;2.10;99.90;;;;;;4973488;28;20656;-56
2021/12/20 10:40:49;;;;;;;3.23;2.50;;;2.20;99.90;;;;;;4989942;28;20219;-59
2021/12/20 10:43:21;;;;;;;4.60;3.27;;;2.30;99.90;;;;;;4981738;28;20199;-60
2021/12/20 10:45:48;;;;;;;4.93;3.40;;;2.30;99.90;;;;;;4992678;28;20202;-58
2021/12/20 10:48:16;;;;;;;6.23;3.83;;;2.30;99.90;;;;;;4992367;28;20250;-56
2021/12/20 10:50:45;;;;;;;8.90;5.10;;;2.40;99.90;;;;;;4992327;28;20210;-52
2021/12/20 10:53:20;;;;;;;6.70;4.57;;;2.40;99.90;;;;;;4992563;28;20570;-58
2021/12/20 10:55:49;;;;;;;5.17;4.53;;;2.40;99.90;;;;;;4992159;28;20191;-55
2021/12/20 10:58:33;;;;;;;7.07;4.40;;;2.40;99.90;;;;;;4992265;28;20556;-58
2021/12/20 11:01:15;;;;;;;6.90;4.17;;;2.50;99.90;;;;;;4982114;28;20691;-57
2021/12/20 11:03:45;;;;;;;8.27;4.63;;;2.50;99.90;;;;;;4972865;28;20556;-55
2021/12/20 11:06:40;;;;;;;6.70;4.57;;;2.60;99.90;;;;;;4972287;28;20200;-55
2021/12/20 11:09:15;;;;;;;6.37;4.00;;;2.70;99.90;;;;;;4972236;28;20196;-58
2021/12/20 11:11:47;;;;;;;7.47;4.20;;;2.60;99.90;;;;;;4985167;28;20195;-60
2021/12/20 11:14:14;;;;;;;4.93;3.33;;;2.50;99.90;;;;;;4991117;28;20271;-59
2021/12/20 11:16:43;;;;;;;6.43;4.27;;;2.50;99.90;;;;;;4991010;28;20305;-56
2021/12/20 11:19:32;;;;;;;5.20;3.50;;;2.50;99.90;;;;;;4971409;28;20216;-56
2021/12/20 11:22:05;;;;;;;4.73;3.27;;;2.50;99.90;;;;;;4972628;28;20596;-58
2021/12/20 11:24:36;;;;;;;2.60;2.20;;;2.50;99.90;;;;;;4972204;28;20622;-59
2021/12/20 11:27:05;;;;;;;3.30;2.27;;;2.40;99.90;;;;;;4972283;28;20228;-59
2021/12/20 11:29:33;;;;;;;4.13;2.80;;;2.40;99.90;;;;;;4975887;28;20203;-56
2021/12/20 11:32:00;;;;;;;3.93;3.00;;;2.40;99.90;;;;;;4992073;28;20209;-58
2021/12/20 11:34:28;;;;;;;4.57;3.10;;;2.40;99.90;;;;;;4983328;28;20228;-54
2021/12/20 11:36:57;;;;;;;6.63;4.13;;;2.50;99.90;;;;;;4972319;28;20188;-58
2021/12/20 11:39:25;;;;;;;3.27;2.80;;;2.50;99.90;;;;;;4972210;28;20229;-59
2021/12/20 11:41:52;;;;;;;3.17;2.43;;;2.50;99.90;;;;;;4972499;28;20227;-57
2021/12/20 11:44:21;;;;;;;3.93;2.73;;;2.50;99.90;;;;;;4984098;28;20224;-58
2021/12/20 11:46:58;;;;;;;4.13;2.77;;;2.40;99.90;;;;;;4991496;28;20210;-57
2021/12/20 11:49:25;;;;;;;5.83;3.40;;;2.40;99.90;;;;;;4990139;28;20204;-57
2021/12/20 11:51:58;;;;;;;5.97;3.67;;;2.40;99.90;;;;;;4990968;28;20191;-55
2021/12/20 11:54:37;;;;;;;5.17;3.27;;;2.40;99.90;;;;;;4991670;28;20214;-55
2021/12/20 11:57:05;;;;;;;5.23;2.40;;;2.40;99.90;;;;;;4992218;28;20195;-60
2021/12/20 11:59:49;;;;;;;4.23;2.53;;;2.30;99.90;;;;;;4991975;28;20536;-58
2021/12/20 12:02:24;;;;;;;6.13;3.50;;;2.30;99.90;;;;;;4991429;28;20227;-56
2021/12/20 12:04:59;;;;;;;3.77;2.70;;;2.30;99.90;;;;;;4991582;28;20187;-59
2021/12/20 12:07:29;;;;;;;3.67;2.53;;;2.30;99.90;;;;;;4991284;28;20207;-59
2021/12/20 12:10:01;;;;;;;3.50;2.30;;;2.30;99.90;;;;;;4991556;28;20287;-55
2021/12/20 12:12:30;;;;;;;3.57;2.70;;;2.30;99.90;;;;;;4991267;28;20342;-56
2021/12/20 12:15:04;;;;;;;1.97;1.73;;;2.30;99.90;;;;;;4991155;28;20749;-56
2021/12/20 12:17:52;;;;;;;2.90;2.23;;;2.30;99.90;;;;;;4991520;28;20210;-57
2021/12/20 12:20:38;;;;;;;4.13;2.80;;;2.30;99.90;;;;;;4991603;28;20218;-57
2021/12/20 12:23:20;;;;;;;2.43;2.07;;;2.20;99.90;;;;;;4991217;28;20235;-57
2021/12/20 12:25:51;;;;;;;3.27;2.00;;;2.20;99.90;;;;;;4991121;28;20220;-54
2021/12/20 12:28:20;;;;;;;2.53;2.20;;;2.20;99.90;;;;;;4991004;28;20223;-58
2021/12/20 12:30:58;;;;;;;3.97;2.80;;;2.20;99.90;;;;;;4992022;28;20616;-57
2021/12/20 12:33:32;;;;;;;2.50;2.30;;;2.20;99.90;;;;;;4991672;28;20755;-56
2021/12/20 12:36:03;;;;;;;3.67;2.40;;;2.20;99.90;;;;;;4987505;28;20680;-57
2021/12/20 12:38:34;;;;;;;4.13;2.97;;;2.20;99.90;;;;;;4994050;28;20640;-56
2021/12/20 12:41:19;;;;;;;3.27;2.20;;;2.20;99.90;;;;;;4991515;28;20207;-59
2021/12/20 12:43:49;;;;;;;3.37;2.00;;;2.10;99.90;;;;;;4994244;28;20211;-58
2021/12/20 12:46:39;;;;;;;3.23;2.13;;;1.90;99.90;;;;;;4993188;28;20533;-57
2021/12/20 12:49:45;;;;;;;1.70;1.60;;;1.70;99.90;;;;;;4993517;28;20273;-57
2021/12/20 12:52:39;;;;;;;2.97;2.00;;;1.50;99.90;;;;;;4989258;28;20198;-56
2021/12/20 12:55:29;;;;;;;2.17;1.70;;;1.40;99.90;;;;;;4990305;28;20283;-60
2021/12/20 12:57:57;;;;;;;2.43;2.23;;;1.40;99.90;;;;;;4981932;28;20231;-56
2021/12/20 13:00:27;;;;;;;2.87;2.37;;;1.40;99.90;;;;;;4987220;28;20205;-59
2021/12/20 13:03:05;;;;;;;2.90;2.20;;;1.40;99.90;;;;;;4975004;28;20716;-58
2021/12/20 13:05:32;;;;;;;5.17;3.20;;;1.40;99.90;;;;;;4983252;28;20235;-58
2021/12/20 13:08:03;;;;;;;7.03;4.40;;;1.50;99.90;;;;;;4993850;28;20298;-56
2021/12/20 13:10:38;;;;;;;4.67;3.13;;;1.50;99.90;;;;;;4994376;28;20597;-57
2021/12/20 13:13:09;;;;;;;4.73;2.77;;;1.50;99.90;;;;;;4980393;28;20285;-57
2021/12/20 13:15:40;;;;;;;6.23;3.83;;;1.50;99.90;;;;;;4974988;28;20255;-61
2021/12/20 13:18:11;;;;;;;5.83;3.80;;;1.60;99.90;;;;;;4974843;28;20200;-60
2021/12/20 13:20:46;;;;;;;4.13;3.17;;;1.60;99.90;;;;;;4974558;28;20200;-57